Time;durP1;ratioP1;P1;durP2;ratioP2;P2;SDS_P1;SDS_P2;PMS_P1;PMS_P2;Temp;Humidity;BMP_temperature;BMP_pressure;BME280_temperature;BME280_humidity;BME280_pressure;Samples;Min_cycle;Max_cycle;Signal;HPM_P1;HPM_P2
2023/11/14 00:02:24;;;;;;;29.58;6.28;;;11.90;99.90;;;;;;7377040;19;20026;-83
2023/11/14 00:04:51;;;;;;;31.92;6.47;;;11.90;99.90;;;;;;7376804;19;20061;-84
2023/11/14 00:07:17;;;;;;;22.20;5.57;;;11.90;99.90;;;;;;7375894;19;20354;-84
2023/11/14 00:09:44;;;;;;;20.58;5.35;;;12.00;99.90;;;;;;7373592;19;20487;-84
2023/11/14 00:12:13;;;;;;;26.65;5.20;;;12.00;99.90;;;;;;7371898;19;20014;-83
2023/11/14 00:14:46;;;;;;;33.88;6.32;;;12.10;99.90;;;;;;7373637;19;20018;-83
2023/11/14 00:17:15;;;;;;;24.42;5.45;;;12.20;99.90;;;;;;7369099;19;20038;-82
2023/11/14 00:19:42;;;;;;;30.40;6.15;;;12.20;99.90;;;;;;7373759;19;20029;-83
2023/11/14 00:22:09;;;;;;;31.48;5.32;;;12.20;99.90;;;;;;7366475;19;20026;-83
2023/11/14 00:24:35;;;;;;;31.88;7.55;;;12.10;99.90;;;;;;7374404;19;20030;-84
2023/11/14 00:27:02;;;;;;;28.67;5.90;;;12.20;99.90;;;;;;7376017;19;20381;-83
2023/11/14 00:29:32;;;;;;;26.33;6.00;;;12.20;99.90;;;;;;7376451;19;20014;-84
2023/11/14 00:32:04;;;;;;;28.70;6.47;;;12.10;99.90;;;;;;7373367;19;20026;-84
2023/11/14 00:34:33;;;;;;;32.15;6.72;;;12.10;99.90;;;;;;7374635;19;20015;-83
2023/11/14 00:36:59;;;;;;;29.75;6.65;;;12.10;99.90;;;;;;7373984;19;20015;-83
2023/11/14 00:39:27;;;;;;;29.38;5.82;;;12.10;99.90;;;;;;7372585;19;20143;-83
2023/11/14 00:41:59;;;;;;;31.00;6.00;;;12.10;99.90;;;;;;7374945;19;20461;-83
2023/11/14 00:44:26;;;;;;;27.85;6.15;;;12.20;99.90;;;;;;7376475;19;20018;-84
2023/11/14 00:46:54;;;;;;;28.58;7.10;;;12.20;99.90;;;;;;7377931;19;20015;-83
2023/11/14 00:49:21;;;;;;;25.08;5.68;;;12.20;99.90;;;;;;7375875;19;20735;-83
2023/11/14 00:51:47;;;;;;;37.85;6.60;;;12.20;99.90;;;;;;7380131;19;20077;-83
2023/11/14 00:54:14;;;;;;;30.00;6.32;;;12.20;99.90;;;;;;7369188;19;20058;-83
2023/11/14 00:56:40;;;;;;;37.63;7.88;;;12.20;99.90;;;;;;7373357;19;20014;-83
2023/11/14 00:59:08;;;;;;;35.70;7.40;;;12.20;99.90;;;;;;7373672;19;20080;-83
2023/11/14 01:01:35;;;;;;;26.77;5.82;;;12.20;99.90;;;;;;7372732;19;20010;-83
2023/11/14 01:04:02;;;;;;;25.52;6.20;;;12.00;99.90;;;;;;7373480;19;20018;-83
2023/11/14 01:06:31;;;;;;;30.02;7.68;;;11.90;99.90;;;;;;7370871;19;20636;-82
2023/11/14 01:09:00;;;;;;;34.75;7.43;;;11.90;99.90;;;;;;7373089;19;20022;-82
2023/11/14 01:11:27;;;;;;;30.15;6.05;;;11.70;99.90;;;;;;7370846;19;20025;-83
2023/11/14 01:13:54;;;;;;;40.38;7.03;;;11.60;99.90;;;;;;7373251;19;20362;-83
2023/11/14 01:16:21;;;;;;;26.90;5.78;;;11.60;99.90;;;;;;7372322;19;20018;-82
2023/11/14 01:18:51;;;;;;;30.38;6.88;;;11.50;99.90;;;;;;7371740;19;20055;-83
2023/11/14 01:21:17;;;;;;;30.77;6.97;;;11.50;99.90;;;;;;7375791;19;20023;-83
2023/11/14 01:23:44;;;;;;;31.70;6.78;;;11.50;99.90;;;;;;7371177;19;20033;-83
2023/11/14 01:26:10;;;;;;;39.13;7.13;;;11.40;99.90;;;;;;7370306;19;20026;-83
2023/11/14 01:28:38;;;;;;;35.10;6.60;;;11.40;99.90;;;;;;7372035;19;20426;-84
2023/11/14 01:31:04;;;;;;;30.17;6.85;;;11.40;99.90;;;;;;7368979;19;20043;-83
2023/11/14 01:33:32;;;;;;;33.08;6.85;;;11.40;99.90;;;;;;7372518;19;20010;-83
2023/11/14 01:35:58;;;;;;;30.15;6.15;;;11.40;99.90;;;;;;7371184;19;20549;-83
2023/11/14 01:38:25;;;;;;;33.25;6.57;;;11.20;99.90;;;;;;7370175;19;20022;-82
2023/11/14 01:40:51;;;;;;;30.85;7.13;;;11.30;99.90;;;;;;7365023;19;20585;-83
2023/11/14 01:43:18;;;;;;;28.98;6.72;;;11.30;99.90;;;;;;7370545;19;20024;-83
2023/11/14 01:45:44;;;;;;;35.92;6.38;;;11.20;99.90;;;;;;7370604;19;20074;-83
2023/11/14 01:48:12;;;;;;;25.65;4.88;;;11.30;99.90;;;;;;7373266;19;20018;-83
2023/11/14 01:54:33;;;;;;;24.50;5.93;;;11.40;99.90;;;;;;7347481;19;20011;-67
2023/11/14 01:57:00;;;;;;;31.80;5.85;;;11.40;99.90;;;;;;7360592;19;20797;-67
2023/11/14 01:59:27;;;;;;;33.10;6.10;;;11.40;99.90;;;;;;7380171;19;20340;-67
2023/11/14 02:01:53;;;;;;;27.98;5.70;;;11.40;99.90;;;;;;7382704;19;20917;-68
2023/11/14 02:04:21;;;;;;;32.63;6.40;;;11.30;99.90;;;;;;7381339;19;20042;-67
2023/11/14 02:06:48;;;;;;;26.67;5.18;;;11.40;99.90;;;;;;7383630;19;20027;-67
2023/11/14 02:09:14;;;;;;;26.08;5.07;;;11.40;99.90;;;;;;7381426;19;20015;-67
2023/11/14 02:11:45;;;;;;;30.02;6.13;;;11.40;99.90;;;;;;7378324;19;20701;-67
2023/11/14 02:14:12;;;;;;;27.35;6.55;;;11.40;99.90;;;;;;7376810;19;20039;-66
2023/11/14 02:16:46;;;;;;;31.52;5.75;;;11.50;99.90;;;;;;7376340;19;20022;-65
2023/11/14 02:19:13;;;;;;;32.85;6.97;;;11.50;99.90;;;;;;7375238;19;20494;-66
2023/11/14 02:21:39;;;;;;;25.25;6.18;;;11.50;99.90;;;;;;7377556;19;20018;-65
2023/11/14 02:24:20;;;;;;;35.20;6.20;;;11.20;99.90;;;;;;7377624;19;20443;-66
2023/11/14 02:26:48;;;;;;;34.70;7.03;;;11.10;99.90;;;;;;7377421;19;20650;-66
2023/11/14 02:29:16;;;;;;;33.50;6.95;;;11.00;99.90;;;;;;7366006;19;20023;-66
2023/11/14 02:31:42;;;;;;;28.52;6.03;;;10.90;99.90;;;;;;7375721;19;20046;-66
2023/11/14 02:34:10;;;;;;;30.85;6.53;;;10.80;99.90;;;;;;7377340;19;20074;-65
2023/11/14 02:36:40;;;;;;;27.20;5.95;;;10.90;99.90;;;;;;7377311;19;20027;-65
2023/11/14 02:39:07;;;;;;;28.70;6.47;;;10.90;99.90;;;;;;7374274;19;20014;-66
2023/11/14 02:41:35;;;;;;;30.92;6.15;;;10.90;99.90;;;;;;7378402;19;20098;-66
2023/11/14 02:44:02;;;;;;;32.70;5.53;;;11.00;99.90;;;;;;7374745;19;20011;-67
2023/11/14 02:46:28;;;;;;;28.55;6.32;;;10.90;99.90;;;;;;7378411;19;20014;-67
2023/11/14 02:48:55;;;;;;;32.88;6.90;;;11.10;99.90;;;;;;7377410;19;20019;-66
2023/11/14 02:51:24;;;;;;;33.10;6.60;;;11.10;99.90;;;;;;7380052;19;20768;-66
2023/11/14 02:53:53;;;;;;;37.67;7.55;;;11.10;99.90;;;;;;7385448;19;20018;-67
2023/11/14 02:56:19;;;;;;;33.67;6.63;;;11.10;99.90;;;;;;7374582;19;20018;-67
2023/11/14 02:58:47;;;;;;;29.45;6.40;;;11.10;99.90;;;;;;7383439;19;20019;-67
2023/11/14 03:01:15;;;;;;;28.48;6.70;;;11.00;99.90;;;;;;7369850;19;20022;-67
2023/11/14 03:03:43;;;;;;;39.38;6.03;;;11.10;99.90;;;;;;7380101;19;20070;-67
2023/11/14 03:06:10;;;;;;;32.28;6.35;;;11.00;99.90;;;;;;7385865;19;20015;-67
2023/11/14 03:08:40;;;;;;;31.92;7.00;;;11.00;99.90;;;;;;7386246;19;20015;-65
2023/11/14 03:11:06;;;;;;;34.47;7.57;;;11.10;99.90;;;;;;7384403;19;20018;-65
2023/11/14 03:13:34;;;;;;;29.60;6.75;;;11.20;99.90;;;;;;7381606;19;20033;-65
2023/11/14 03:16:02;;;;;;;32.22;5.97;;;11.20;99.90;;;;;;7377075;19;20010;-65
2023/11/14 03:18:28;;;;;;;32.80;6.55;;;11.10;99.90;;;;;;7381236;19;20056;-66
2023/11/14 03:20:55;;;;;;;28.75;6.60;;;11.20;99.90;;;;;;7379540;19;20492;-66
2023/11/14 03:23:21;;;;;;;30.92;6.60;;;11.20;99.90;;;;;;7379399;19;20027;-66
2023/11/14 03:25:47;;;;;;;33.10;5.70;;;11.20;99.90;;;;;;7379826;19;20022;-66
2023/11/14 03:28:17;;;;;;;36.85;7.53;;;11.30;99.90;;;;;;7378234;19;20105;-66
2023/11/14 03:30:43;;;;;;;28.38;7.00;;;11.30;99.90;;;;;;7377799;19;20397;-66
2023/11/14 03:33:09;;;;;;;30.02;7.35;;;11.30;99.90;;;;;;7379348;19;20026;-65
2023/11/14 03:35:37;;;;;;;33.05;6.25;;;11.30;99.90;;;;;;7381326;19;20023;-66
2023/11/14 03:38:03;;;;;;;30.95;7.05;;;11.30;99.90;;;;;;7377712;19;20043;-65
2023/11/14 03:40:30;;;;;;;33.20;6.35;;;11.20;99.90;;;;;;7379131;19;20010;-65
2023/11/14 03:42:56;;;;;;;36.78;8.40;;;11.20;99.90;;;;;;7377264;19;20670;-66
2023/11/14 03:45:22;;;;;;;34.80;7.32;;;11.30;99.90;;;;;;7381419;19;20047;-66
2023/11/14 03:47:48;;;;;;;31.38;5.68;;;11.20;99.90;;;;;;7377415;19;20046;-66
2023/11/14 03:50:15;;;;;;;29.48;6.43;;;11.30;99.90;;;;;;7378048;19;20022;-67
2023/11/14 03:52:43;;;;;;;34.90;7.72;;;11.20;99.90;;;;;;7379283;19;20346;-66
2023/11/14 03:55:09;;;;;;;36.45;7.22;;;11.20;99.90;;;;;;7377286;19;20099;-66
2023/11/14 03:57:36;;;;;;;31.05;7.55;;;11.10;99.90;;;;;;7375005;19;20074;-67
2023/11/14 04:00:04;;;;;;;30.08;7.68;;;11.10;99.90;;;;;;7377666;19;20135;-66
2023/11/14 04:02:39;;;;;;;28.92;6.65;;;11.20;99.90;;;;;;7379984;19;20105;-66
2023/11/14 04:05:06;;;;;;;32.72;6.22;;;11.20;99.90;;;;;;7378043;19;20055;-66
2023/11/14 04:07:32;;;;;;;38.17;7.63;;;11.30;99.90;;;;;;7378172;19;20074;-66
2023/11/14 04:09:59;;;;;;;31.25;6.32;;;11.20;99.90;;;;;;7376149;19;20014;-66
2023/11/14 04:12:25;;;;;;;36.00;7.40;;;11.30;99.90;;;;;;7379446;19;20033;-67
2023/11/14 04:14:52;;;;;;;39.40;7.00;;;11.30;99.90;;;;;;7375871;19;20030;-66
2023/11/14 04:17:19;;;;;;;42.78;7.82;;;11.20;99.90;;;;;;7376405;19;20014;-67
2023/11/14 04:19:46;;;;;;;32.92;6.75;;;11.30;99.90;;;;;;7379669;19;20711;-67
2023/11/14 04:22:12;;;;;;;38.55;7.57;;;11.30;99.90;;;;;;7374817;19;20394;-66
2023/11/14 04:24:38;;;;;;;42.30;7.70;;;11.30;99.90;;;;;;7378807;19;20496;-66
2023/11/14 04:27:05;;;;;;;41.75;8.07;;;11.30;99.90;;;;;;7377501;19;20026;-67
2023/11/14 04:29:32;;;;;;;34.92;7.07;;;11.30;99.90;;;;;;7378696;19;20423;-67
2023/11/14 04:31:58;;;;;;;39.72;7.82;;;11.20;99.90;;;;;;7377944;19;20101;-67
2023/11/14 04:34:26;;;;;;;34.65;6.90;;;11.20;99.90;;;;;;7380480;19;20419;-67
2023/11/14 04:36:52;;;;;;;34.28;6.93;;;11.20;99.90;;;;;;7376553;19;20672;-67
2023/11/14 04:39:19;;;;;;;35.40;6.70;;;11.20;99.90;;;;;;7376727;19;20019;-67
2023/11/14 04:41:45;;;;;;;32.58;6.63;;;11.20;99.90;;;;;;7374909;19;20014;-67
2023/11/14 04:44:14;;;;;;;31.00;6.38;;;11.20;99.90;;;;;;7377998;19;20049;-66
2023/11/14 04:46:44;;;;;;;28.85;6.07;;;11.20;99.90;;;;;;7377880;19;20490;-66
2023/11/14 04:49:12;;;;;;;32.45;6.65;;;11.20;99.90;;;;;;7373855;19;20026;-66
2023/11/14 04:51:38;;;;;;;37.90;8.50;;;11.20;99.90;;;;;;7379510;19;20094;-66
2023/11/14 04:54:05;;;;;;;40.47;8.07;;;11.30;99.90;;;;;;7374846;19;20022;-66
2023/11/14 04:56:31;;;;;;;33.97;7.50;;;11.30;99.90;;;;;;7374647;19;20025;-66
2023/11/14 04:58:57;;;;;;;35.92;6.95;;;11.30;99.90;;;;;;7378521;19;20022;-66
2023/11/14 05:01:23;;;;;;;33.55;6.40;;;11.30;99.90;;;;;;7374971;19;20022;-66
2023/11/14 05:03:50;;;;;;;35.33;8.43;;;11.20;99.90;;;;;;7372766;19;20018;-65
2023/11/14 05:06:16;;;;;;;29.23;6.78;;;11.20;99.90;;;;;;7378588;19;20018;-66
2023/11/14 05:08:42;;;;;;;32.63;6.82;;;11.20;99.90;;;;;;7368704;19;20484;-65
2023/11/14 05:11:09;;;;;;;38.10;6.25;;;11.20;99.90;;;;;;7377832;19;20131;-65
2023/11/14 05:13:36;;;;;;;32.97;7.57;;;11.20;99.90;;;;;;7373851;19;20628;-67
2023/11/14 05:16:03;;;;;;;37.92;7.65;;;11.20;99.90;;;;;;7378195;19;20018;-66
2023/11/14 05:18:33;;;;;;;32.75;7.18;;;11.20;99.90;;;;;;7372750;19;20025;-65
2023/11/14 05:20:59;;;;;;;42.13;7.03;;;11.40;99.90;;;;;;7372679;19;20547;-66
2023/11/14 05:23:25;;;;;;;31.77;6.40;;;11.30;99.90;;;;;;7373869;19;20014;-66
2023/11/14 05:25:51;;;;;;;29.85;6.57;;;11.40;99.90;;;;;;7375382;19;20048;-66
2023/11/14 05:28:17;;;;;;;35.33;7.03;;;11.30;99.90;;;;;;7374483;19;20029;-66
2023/11/14 05:30:44;;;;;;;31.15;6.80;;;11.40;99.90;;;;;;7372316;19;20018;-66
2023/11/14 05:33:12;;;;;;;36.22;7.30;;;11.30;99.90;;;;;;7375538;19;20018;-69
2023/11/14 05:35:39;;;;;;;32.20;6.50;;;11.40;99.90;;;;;;7376267;19;20026;-70
2023/11/14 05:38:05;;;;;;;32.35;7.38;;;11.40;99.90;;;;;;7376736;19;20074;-70
2023/11/14 05:40:31;;;;;;;31.33;6.10;;;11.30;99.90;;;;;;7375958;19;20329;-70
2023/11/14 05:42:58;;;;;;;32.10;7.50;;;11.40;99.90;;;;;;7374579;19;20764;-70
2023/11/14 05:45:24;;;;;;;25.73;6.45;;;11.50;99.90;;;;;;7373768;19;20022;-70
2023/11/14 05:47:50;;;;;;;36.10;7.38;;;11.50;99.90;;;;;;7372663;19;20019;-70
2023/11/14 05:50:16;;;;;;;34.75;7.30;;;11.50;99.90;;;;;;7371641;19;20015;-65
2023/11/14 05:52:43;;;;;;;32.40;7.03;;;11.50;99.90;;;;;;7373789;19;20031;-65
2023/11/14 05:55:09;;;;;;;30.58;8.13;;;11.50;99.90;;;;;;7377491;19;20128;-71
2023/11/14 05:57:35;;;;;;;30.27;6.70;;;11.50;99.90;;;;;;7374969;19;20025;-70
2023/11/14 06:00:02;;;;;;;30.58;6.40;;;11.50;99.90;;;;;;7373086;19;20028;-70
2023/11/14 06:02:38;;;;;;;43.78;7.95;;;11.50;99.90;;;;;;7376923;19;20090;-70
2023/11/14 06:05:04;;;;;;;35.28;7.88;;;11.60;99.90;;;;;;7371377;19;20134;-71
2023/11/14 06:07:31;;;;;;;35.53;7.68;;;11.60;99.90;;;;;;7372821;19;20049;-65
2023/11/14 06:09:57;;;;;;;29.05;6.43;;;11.60;99.90;;;;;;7371092;19;20011;-66
2023/11/14 06:12:24;;;;;;;39.83;8.30;;;11.60;99.90;;;;;;7373850;19;20029;-66
2023/11/14 06:14:50;;;;;;;31.40;8.00;;;11.60;99.90;;;;;;7375761;19;20014;-65
2023/11/14 06:17:19;;;;;;;34.85;6.90;;;11.60;99.90;;;;;;7375740;19;20010;-66
2023/11/14 06:19:46;;;;;;;32.10;7.05;;;11.60;99.90;;;;;;7378484;19;20596;-65
2023/11/14 06:22:12;;;;;;;36.30;6.97;;;11.60;99.90;;;;;;7382938;19;20089;-65
2023/11/14 06:24:38;;;;;;;28.08;6.90;;;11.60;99.90;;;;;;7383461;19;20035;-64
2023/11/14 06:27:04;;;;;;;38.63;8.57;;;11.60;99.90;;;;;;7381006;19;20019;-65
2023/11/14 06:29:31;;;;;;;36.90;7.28;;;11.60;99.90;;;;;;7379651;19;20018;-66
2023/11/14 06:31:57;;;;;;;29.75;7.60;;;11.60;99.90;;;;;;7381752;19;20026;-65
2023/11/14 06:34:23;;;;;;;32.17;7.10;;;11.60;99.90;;;;;;7377067;19;20019;-65
2023/11/14 06:36:49;;;;;;;34.72;6.88;;;11.50;99.90;;;;;;7380952;19;20624;-66
2023/11/14 06:39:16;;;;;;;31.77;7.35;;;11.60;99.90;;;;;;7381747;19;20038;-64
2023/11/14 06:41:48;;;;;;;34.45;7.95;;;11.60;99.90;;;;;;7380168;19;21488;-65
2023/11/14 06:44:14;;;;;;;36.42;7.57;;;11.60;99.90;;;;;;7380996;19;20899;-63
2023/11/14 06:46:41;;;;;;;33.45;7.47;;;11.60;99.90;;;;;;7379230;19;20643;-64
2023/11/14 06:49:07;;;;;;;39.35;7.07;;;11.60;99.90;;;;;;7375799;19;20380;-63
2023/11/14 06:51:34;;;;;;;42.35;7.40;;;11.60;99.90;;;;;;7375347;19;20019;-67
2023/11/14 06:54:00;;;;;;;34.92;7.20;;;11.60;99.90;;;;;;7372294;19;20014;-63
2023/11/14 06:56:26;;;;;;;38.63;7.25;;;11.50;99.90;;;;;;7373248;19;20090;-62
2023/11/14 06:58:53;;;;;;;29.15;6.63;;;11.50;99.90;;;;;;7378608;19;20048;-64
2023/11/14 07:01:19;;;;;;;35.00;7.30;;;11.40;99.90;;;;;;7378416;19;20011;-64
2023/11/14 07:03:45;;;;;;;31.60;6.63;;;11.50;99.90;;;;;;7380820;19;20377;-64
2023/11/14 07:06:12;;;;;;;35.20;7.30;;;11.40;99.90;;;;;;7377766;19;20015;-63
2023/11/14 07:08:39;;;;;;;38.70;7.95;;;11.40;99.90;;;;;;7380091;19;20025;-63
2023/11/14 07:11:06;;;;;;;32.75;6.38;;;11.40;99.90;;;;;;7381439;19;20014;-64
2023/11/14 07:13:32;;;;;;;33.67;7.00;;;11.40;99.90;;;;;;7380909;19;20044;-70
2023/11/14 07:15:58;;;;;;;31.83;5.70;;;11.40;99.90;;;;;;7382283;19;20502;-69
2023/11/14 07:18:24;;;;;;;33.70;7.22;;;11.40;99.90;;;;;;7380401;19;20453;-64
2023/11/14 07:20:52;;;;;;;37.05;8.20;;;11.40;99.90;;;;;;7370126;19;20957;-63
2023/11/14 07:23:18;;;;;;;27.63;6.85;;;11.50;99.90;;;;;;7382020;19;20583;-68
2023/11/14 07:25:44;;;;;;;36.53;8.65;;;11.50;99.90;;;;;;7376898;19;20020;-67
2023/11/14 07:28:13;;;;;;;36.22;6.90;;;11.50;99.90;;;;;;7379888;19;20109;-68
2023/11/14 07:30:39;;;;;;;34.03;7.15;;;11.50;99.90;;;;;;7377364;19;20018;-69
2023/11/14 07:33:06;;;;;;;35.10;7.97;;;11.50;99.90;;;;;;7381550;19;20064;-69
2023/11/14 07:35:37;;;;;;;36.55;7.45;;;11.50;99.90;;;;;;7377961;19;20632;-68
2023/11/14 07:38:04;;;;;;;33.53;7.40;;;11.60;99.90;;;;;;7377879;19;20018;-69
2023/11/14 07:40:32;;;;;;;43.90;8.02;;;11.50;99.90;;;;;;7379949;19;20026;-63
2023/11/14 07:43:02;;;;;;;36.17;7.78;;;11.60;99.90;;;;;;7380724;19;20022;-69
2023/11/14 07:45:31;;;;;;;31.02;6.80;;;11.60;99.90;;;;;;7378011;19;20011;-69
2023/11/14 07:47:58;;;;;;;37.53;7.38;;;11.60;99.90;;;;;;7380169;19;20019;-69
2023/11/14 07:50:25;;;;;;;36.13;6.68;;;11.60;99.90;;;;;;7376294;19;20018;-64
2023/11/14 07:52:52;;;;;;;35.78;6.57;;;11.60;99.90;;;;;;7378076;19;20134;-69
2023/11/14 07:55:19;;;;;;;28.88;7.40;;;11.60;99.90;;;;;;7369405;19;20067;-64
2023/11/14 07:57:45;;;;;;;35.90;7.00;;;11.60;99.90;;;;;;7374478;19;20415;-70
2023/11/14 08:00:12;;;;;;;35.40;7.45;;;11.60;99.90;;;;;;7377533;19;20022;-62
2023/11/14 08:02:39;;;;;;;34.03;6.88;;;11.70;99.90;;;;;;7373839;19;20043;-65
2023/11/14 08:05:08;;;;;;;33.92;7.18;;;11.70;99.90;;;;;;7376211;19;20026;-64
2023/11/14 08:07:34;;;;;;;39.83;7.85;;;11.80;99.90;;;;;;7376989;19;20053;-64
2023/11/14 08:10:01;;;;;;;37.38;7.07;;;11.90;99.90;;;;;;7375194;19;20023;-64
2023/11/14 08:12:27;;;;;;;38.88;6.93;;;11.90;99.90;;;;;;7377939;19;20011;-64
2023/11/14 08:14:54;;;;;;;31.98;6.90;;;12.00;99.90;;;;;;7377087;19;20021;-64
2023/11/14 08:17:21;;;;;;;35.30;7.47;;;12.10;99.90;;;;;;7382453;19;20029;-71
2023/11/14 08:19:49;;;;;;;44.22;7.63;;;12.10;99.90;;;;;;7378471;19;20084;-69
2023/11/14 08:22:16;;;;;;;33.15;6.80;;;12.10;99.90;;;;;;7377943;19;20078;-64
2023/11/14 08:24:42;;;;;;;32.20;7.97;;;12.00;99.90;;;;;;7376555;19;20014;-69
2023/11/14 08:27:09;;;;;;;34.75;7.00;;;12.00;99.90;;;;;;7376009;19;20141;-70
2023/11/14 08:29:36;;;;;;;33.22;7.00;;;12.10;99.90;;;;;;7373164;19;20090;-69
2023/11/14 08:32:05;;;;;;;30.42;7.25;;;12.00;99.90;;;;;;7376938;19;20018;-70
2023/11/14 08:34:32;;;;;;;38.72;7.85;;;12.00;99.90;;;;;;7379264;19;20512;-69
2023/11/14 08:36:58;;;;;;;33.72;6.63;;;11.90;99.90;;;;;;7376439;19;20014;-69
2023/11/14 08:39:26;;;;;;;30.25;6.40;;;11.90;99.90;;;;;;7375542;19;20026;-70
2023/11/14 08:41:52;;;;;;;36.17;8.88;;;11.90;99.90;;;;;;7377239;19;20029;-69
2023/11/14 08:44:18;;;;;;;37.65;7.93;;;11.80;99.90;;;;;;7380963;19;20022;-69
2023/11/14 08:46:45;;;;;;;33.88;6.97;;;11.80;99.90;;;;;;7373306;19;20021;-70
2023/11/14 08:49:11;;;;;;;40.50;7.78;;;11.80;99.90;;;;;;7375309;19;20029;-66
2023/11/14 08:51:38;;;;;;;34.38;8.13;;;11.90;99.90;;;;;;7376470;19;20010;-64
2023/11/14 08:54:05;;;;;;;35.28;7.72;;;11.90;99.90;;;;;;7372860;19;20039;-64
2023/11/14 08:56:31;;;;;;;37.05;7.88;;;11.90;99.90;;;;;;7372168;19;20026;-64
2023/11/14 08:58:58;;;;;;;31.77;7.35;;;12.00;99.90;;;;;;7375376;19;20052;-64
2023/11/14 09:01:24;;;;;;;36.67;7.13;;;12.00;99.90;;;;;;7378320;19;20019;-64
2023/11/14 09:03:51;;;;;;;28.25;6.13;;;12.10;99.90;;;;;;7373035;19;20512;-64
2023/11/14 09:06:17;;;;;;;39.53;7.40;;;12.10;99.90;;;;;;7376039;19;20119;-64
2023/11/14 09:08:44;;;;;;;30.15;6.18;;;12.10;99.90;;;;;;7372084;19;20436;-64
2023/11/14 09:11:12;;;;;;;32.53;7.20;;;12.10;99.90;;;;;;7373752;19;20019;-65
2023/11/14 09:13:38;;;;;;;33.20;7.45;;;12.10;99.90;;;;;;7375026;19;20697;-69
2023/11/14 09:16:09;;;;;;;33.40;7.53;;;12.10;99.90;;;;;;7376021;19;20019;-70
2023/11/14 09:18:37;;;;;;;28.35;6.43;;;12.20;99.90;;;;;;7374873;19;20017;-70
2023/11/14 09:21:03;;;;;;;33.15;6.65;;;12.20;99.90;;;;;;7374169;19;20130;-70
2023/11/14 09:23:32;;;;;;;34.33;7.38;;;12.30;99.90;;;;;;7372883;19;20014;-65
2023/11/14 09:25:59;;;;;;;30.58;7.30;;;12.30;99.90;;;;;;7370910;19;20014;-64
2023/11/14 09:28:25;;;;;;;27.95;6.88;;;12.40;99.90;;;;;;7371690;19;20077;-64
2023/11/14 09:30:52;;;;;;;26.45;6.10;;;12.70;99.90;;;;;;7373125;19;20054;-65
2023/11/14 09:33:18;;;;;;;32.97;6.60;;;13.30;99.90;;;;;;7372133;19;20572;-64
2023/11/14 09:35:44;;;;;;;36.90;8.02;;;13.30;99.90;;;;;;7370184;19;20923;-70
2023/11/14 09:38:10;;;;;;;29.95;6.95;;;13.30;99.90;;;;;;7367565;19;21083;-70
2023/11/14 09:40:37;;;;;;;38.30;7.57;;;13.20;99.90;;;;;;7373240;19;20670;-70
2023/11/14 09:43:06;;;;;;;31.15;6.82;;;13.20;99.90;;;;;;7370111;19;20838;-70
2023/11/14 09:45:33;;;;;;;37.92;8.80;;;13.30;99.90;;;;;;7371866;19;20022;-69
2023/11/14 09:48:00;;;;;;;31.13;7.20;;;13.30;99.90;;;;;;7374323;19;20018;-70
2023/11/14 09:50:26;;;;;;;35.63;5.68;;;13.40;99.90;;;;;;7374222;19;20063;-70
2023/11/14 09:52:53;;;;;;;28.85;6.78;;;13.20;99.90;;;;;;7373814;19;20026;-64
2023/11/14 09:55:19;;;;;;;29.52;6.38;;;13.10;99.90;;;;;;7372650;19;20018;-70
2023/11/14 09:57:46;;;;;;;30.65;6.93;;;13.30;99.90;;;;;;7371612;19;20015;-64
2023/11/14 10:00:13;;;;;;;31.15;6.65;;;13.30;99.90;;;;;;7372467;19;20363;-70
2023/11/14 10:02:40;;;;;;;30.77;6.50;;;13.30;99.90;;;;;;7370630;19;20010;-64
2023/11/14 10:05:10;;;;;;;30.55;7.15;;;13.00;99.90;;;;;;7375669;19;20019;-65
2023/11/14 10:07:40;;;;;;;32.90;7.83;;;13.00;99.90;;;;;;7374078;19;20135;-64
2023/11/14 10:10:06;;;;;;;31.75;6.05;;;13.00;99.90;;;;;;7373375;19;20278;-64
2023/11/14 10:12:34;;;;;;;26.80;5.75;;;12.80;99.90;;;;;;7371484;19;20099;-64
2023/11/14 10:15:01;;;;;;;29.95;7.40;;;12.80;99.90;;;;;;7374665;19;20018;-65
2023/11/14 10:17:40;;;;;;;32.90;6.32;;;12.90;99.90;;;;;;7371147;19;20018;-64
2023/11/14 10:20:08;;;;;;;33.20;6.97;;;13.00;99.90;;;;;;7371173;19;20014;-64
2023/11/14 10:22:35;;;;;;;30.80;6.53;;;12.90;99.90;;;;;;7374238;19;20014;-64
2023/11/14 10:25:02;;;;;;;34.00;7.65;;;12.90;99.90;;;;;;7372621;19;20409;-64
2023/11/14 10:27:33;;;;;;;33.47;6.32;;;12.70;99.90;;;;;;7374998;19;20015;-67
2023/11/14 10:29:59;;;;;;;36.50;7.55;;;12.60;99.90;;;;;;7370994;19;20340;-64
2023/11/14 10:32:27;;;;;;;28.38;7.25;;;12.60;99.90;;;;;;7371454;19;20014;-64
2023/11/14 10:34:53;;;;;;;32.10;6.95;;;12.50;99.90;;;;;;7371557;19;20021;-64
2023/11/14 10:37:31;;;;;;;32.28;6.43;;;12.40;99.90;;;;;;7373290;19;20026;-64
2023/11/14 10:39:57;;;;;;;27.55;5.70;;;12.30;99.90;;;;;;7374331;19;20052;-64
2023/11/14 10:42:25;;;;;;;29.83;5.85;;;12.30;99.90;;;;;;7375264;19;20048;-64
2023/11/14 10:45:04;;;;;;;28.35;6.13;;;12.30;99.90;;;;;;7371182;19;21051;-64
2023/11/14 10:47:41;;;;;;;32.40;7.35;;;12.20;99.90;;;;;;7373019;19;20029;-65
2023/11/14 10:50:30;;;;;;;29.30;5.80;;;12.10;99.90;;;;;;7374340;19;20025;-64
2023/11/14 10:52:57;;;;;;;23.77;5.25;;;12.00;99.90;;;;;;7370787;19;20178;-70
2023/11/14 10:55:25;;;;;;;30.15;4.97;;;11.70;99.90;;;;;;7369199;19;20014;-70
2023/11/14 10:57:53;;;;;;;28.77;5.75;;;11.60;99.90;;;;;;7370514;19;20018;-70
2023/11/14 11:00:24;;;;;;;26.27;6.32;;;11.60;99.90;;;;;;7370389;19;20054;-69
2023/11/14 11:02:52;;;;;;;36.65;6.00;;;11.70;99.90;;;;;;7374587;19;20103;-69
2023/11/14 11:05:28;;;;;;;35.17;6.78;;;12.00;99.90;;;;;;7369483;19;20015;-73
2023/11/14 11:07:54;;;;;;;32.78;5.63;;;12.60;99.90;;;;;;7377457;19;20089;-70
2023/11/14 11:10:21;;;;;;;33.28;6.60;;;13.00;99.90;;;;;;7376520;19;20030;-72
2023/11/14 11:12:48;;;;;;;36.20;6.50;;;13.60;99.90;;;;;;7380111;19;20473;-73
2023/11/14 11:15:15;;;;;;;31.00;6.82;;;13.50;99.90;;;;;;7374148;19;20024;-73
2023/11/14 11:17:44;;;;;;;29.25;6.30;;;13.30;99.90;;;;;;7380900;19;20034;-73
2023/11/14 11:20:21;;;;;;;41.22;6.15;;;13.20;99.90;;;;;;7383103;19;20014;-65
2023/11/14 11:23:12;;;;;;;28.05;7.70;;;13.30;99.90;;;;;;7382378;19;20093;-73
2023/11/14 11:25:43;;;;;;;31.83;7.10;;;13.40;99.90;;;;;;7380093;19;20041;-73
2023/11/14 11:28:21;;;;;;;32.03;6.32;;;14.00;99.90;;;;;;7381902;19;20082;-73
2023/11/14 11:31:07;;;;;;;33.90;7.05;;;14.80;99.90;;;;;;7380286;19;20010;-73
2023/11/14 11:33:38;;;;;;;30.77;6.10;;;14.60;99.90;;;;;;7381429;19;20073;-73
2023/11/14 11:36:23;;;;;;;31.20;6.10;;;14.40;99.90;;;;;;7379800;19;20382;-73
2023/11/14 11:38:53;;;;;;;30.83;6.47;;;13.90;99.90;;;;;;7382816;19;20055;-73
2023/11/14 11:41:20;;;;;;;27.67;7.20;;;13.70;99.90;;;;;;7381077;19;20089;-72
2023/11/14 11:44:05;;;;;;;27.77;6.85;;;13.40;99.90;;;;;;7380704;19;20026;-72
2023/11/14 11:46:32;;;;;;;32.90;7.13;;;13.20;99.90;;;;;;7377901;19;20019;-73
2023/11/14 11:49:10;;;;;;;27.42;5.90;;;13.10;99.90;;;;;;7377878;19;20115;-65
2023/11/14 11:51:46;;;;;;;25.67;5.82;;;12.80;99.90;;;;;;7385346;19;20018;-66
2023/11/14 11:54:43;;;;;;;37.55;6.88;;;12.50;99.90;;;;;;7385415;19;20488;-65
2023/11/14 11:57:10;;;;;;;29.05;6.05;;;12.40;99.90;;;;;;7381086;19;20010;-65
2023/11/14 11:59:40;;;;;;;30.83;5.88;;;12.30;99.90;;;;;;7389178;19;20540;-65
2023/11/14 12:02:17;;;;;;;30.85;6.55;;;12.30;99.90;;;;;;7388544;19;20915;-66
2023/11/14 12:04:44;;;;;;;37.28;7.78;;;12.40;99.90;;;;;;7390722;19;20011;-66
2023/11/14 12:07:11;;;;;;;36.05;6.57;;;12.70;99.90;;;;;;7392234;19;20014;-67
2023/11/14 12:09:42;;;;;;;28.63;6.97;;;12.90;99.90;;;;;;7386754;19;20018;-67
2023/11/14 12:12:08;;;;;;;46.70;18.27;;;13.00;99.90;;;;;;7387565;19;20018;-60
2023/11/14 12:14:34;;;;;;;48.10;15.60;;;13.50;99.90;;;;;;7375815;19;20010;-60
2023/11/14 12:17:03;;;;;;;32.88;8.00;;;14.20;99.90;;;;;;7376802;19;20014;-60
2023/11/14 12:19:29;;;;;;;36.83;8.70;;;14.60;99.90;;;;;;7376105;19;20378;-61
2023/11/14 12:21:57;;;;;;;36.17;6.88;;;14.30;99.90;;;;;;7378976;19;20420;-63
2023/11/14 12:24:23;;;;;;;39.20;12.10;;;13.90;99.90;;;;;;7377565;19;20442;-60
2023/11/14 12:26:50;;;;;;;36.13;12.60;;;13.80;99.90;;;;;;7373705;19;20523;-60
2023/11/14 12:29:17;;;;;;;36.05;11.90;;;13.60;99.90;;;;;;7368433;19;20026;-60
2023/11/14 12:31:51;;;;;;;42.58;14.43;;;13.50;99.90;;;;;;7373158;19;20061;-61
2023/11/14 12:34:31;;;;;;;39.17;10.93;;;13.40;99.90;;;;;;7376848;19;20006;-61
2023/11/14 12:37:07;;;;;;;37.95;8.60;;;13.30;99.90;;;;;;7375052;19;20018;-61
2023/11/14 12:39:34;;;;;;;29.85;8.63;;;13.20;99.90;;;;;;7371920;19;20046;-61
2023/11/14 12:42:00;;;;;;;32.08;7.53;;;13.10;99.90;;;;;;7377209;19;20014;-60
2023/11/14 12:44:27;;;;;;;33.03;8.40;;;13.00;99.90;;;;;;7375018;19;20847;-60